• Join FlightAware (Why Join?)
  • Login
  • US Flag 
03:08PM EDT


 

Airport Tracker/Info


-or-


 

Live Flight TrackerFlight Track Log ✈ AAL2237 ✈ 27-Oct-2013 ✈ KDFW - KDCA

Flight Track Log - Related Links

Times and Time Zones

All times are in EDT time to prevent confusion due to time zone crossing. See the AAL2237 flight status page for this flight to view local times or setup timezone preferences in your user account.

Time Position Orientation Groundspeed Altitude Reporting Facility
EDT Latitude Longitude Course Direction KTS MPH feet Rate Location/Type
02:43PM 32.9167 -97.0333 64° Northeast 178 205 1,100  Level Dallas / Fort Worth TRACON
02:44PM 32.9833 -97.0333 360° North 227 261 3,500 2,220 Climbing Dallas / Fort Worth TRACON
02:46PM 33.0189 -96.9339 67° East 270 311 7,000 2,280 Climbing Fort Worth Center
02:47PM 33.0114 -96.8381 95° East 291 335 9,500 1,740 Climbing Fort Worth Center
02:48PM 33.0022 -96.7222 95° East 330 380 10,700 1,560 Climbing Fort Worth Center
02:49PM 32.9533 -96.3502 64° Northeast  Level FlightAware Approximate
02:49PM 32.9931 -96.6153 96° East 364 419 12,800  Level Fort Worth Center
02:50PM 32.9814 -96.4656 95° East 390 449 15,300 2,280 Climbing Fort Worth Center
02:51PM 32.9722 -96.3200 94° East 410 472 17,600 1,980 Climbing Fort Worth Center
02:52PM 32.9908 -96.1822 81° East 419 482 19,400 1,860 Climbing Fort Worth Center
02:53PM 33.0114 -96.0311 81° East 430 495 21,500 1,740 Climbing Fort Worth Center
02:54PM 33.0308 -95.8875 81° East 441 507 23,100 1,440 Climbing Fort Worth Center
02:55PM 33.0497 -95.7567 80° East 446 513 24,500 1,440 Climbing Fort Worth Center
02:56PM 33.0747 -95.5756 81° East 460 529 26,100 1,500 Climbing Fort Worth Center
02:57PM 33.1297 -95.4353 65° Northeast 456 525 27,600 1,380 Climbing Fort Worth Center
02:58PM 33.1856 -95.2953 64° Northeast 464 534 29,000 1,320 Climbing Fort Worth Center
02:59PM 33.2381 -95.1561 66° East 460 529 30,400 1,200 Climbing Fort Worth Center
03:00PM 33.2936 -95.0183 64° Northeast 460 529 31,600 960 Climbing Fort Worth Center
03:01PM 33.3469 -94.8789 65° Northeast 460 529 32,400 600 Climbing Fort Worth Center
03:02PM 33.4003 -94.7400 65° Northeast 460 529 32,900 240 Climbing Fort Worth Center
03:03PM 33.4675 -94.5661 65° Northeast 476 548 33,000  Climbing Fort Worth Center
03:04PM 33.5228 -94.4231 65° Northeast 472 543 33,000  Level Fort Worth Center
03:05PM 33.5778 -94.2792 65° Northeast 471 542 33,000  Level Fort Worth Center
03:06PM 33.6328 -94.1333 66° East 473 544 33,000  Level Fort Worth Center
03:07PM 33.6867 -93.9908 66° East 465 535 33,000  Level Fort Worth Center
03:08PM 33.7400 -93.8472 66° East 466 536 33,000  Level Fort Worth Center
03:09PM 33.7936 -93.7036 66° East 467 537 33,000  Level Fort Worth Center
03:10PM 33.8469 -93.5606 66° East 466 536 33,000  Level Fort Worth Center
03:11PM 33.9100 -93.3875 66° East 469 540 33,000  Level Fort Worth Center
03:12PM 33.9628 -93.2447 66° East 468 539 33,000  Level Fort Worth Center
03:13PM 34.0150 -93.1014 66° East 467 537 33,000  Level Fort Worth Center
03:15PM 34.0678 -92.9583 66° East 466 536 33,000  Level Fort Worth Center
03:16PM 34.1325 -92.7836 66° East 459 528 33,000  Level Memphis Center
03:17PM 34.1789 -92.6544 67° East 459 528 33,000  Level Memphis Center
03:18PM 34.2294 -92.5100 67° East 459 528 33,000  Level Memphis Center
03:19PM 34.2797 -92.3656 67° East 459 528 33,000  Level Memphis Center
03:20PM 34.3319 -92.2233 66° East 454 522 33,000  Level Memphis Center
03:21PM 34.3842 -92.0811 66° East 459 528 33,000  Level Memphis Center
03:22PM 34.4339 -91.9411 67° East 454 522 33,000  Level Memphis Center
03:23PM 34.4817 -91.8008 68° East 454 522 33,000  Level Memphis Center
03:24PM 34.5333 -91.6581 66° East 454 522 33,000  Level Memphis Center
03:25PM 34.5892 -91.5025 66° East 461 531 33,000  Level Memphis Center
03:26PM 34.6383 -91.3592 67° East 456 525 33,000  Level Memphis Center
03:27PM 34.6872 -91.2158 67° East 461 531 33,000  Level Memphis Center
03:28PM 34.7361 -91.0747 67° East 454 522 33,000  Level Memphis Center
03:29PM 34.7869 -90.9286 67° East 454 522 33,000  Level Memphis Center
03:30PM 34.8356 -90.7847 68° East 459 528 33,000  Level Memphis Center
03:31PM 34.8839 -90.6406 68° East 459 528 33,000  Level Memphis Center
03:32PM 34.9342 -90.4939 67° East 453 521 33,000  Level Memphis Center
03:33PM 34.9822 -90.3494 68° East 460 529 33,000  Level Memphis Center
03:34PM 35.0261 -90.2253 67° East 455 524 33,000  Level Memphis Center
03:35PM 35.0739 -90.0806 68° East 455 524 33,000  Level Memphis Center
03:36PM 35.1214 -89.9408 67° East 455 524 33,000  Level Memphis Center
03:37PM 35.1728 -89.7831 68° East 455 524 33,000  Level Memphis Center
03:38PM 35.2181 -89.6403 69° East 448 516 33,000  Level Memphis Center
03:39PM 35.2631 -89.5025 68° East 448 516 33,000  Level Memphis Center
03:40PM 35.3078 -89.3622 69° East 443 510 33,000  Level Memphis Center
03:41PM 35.3547 -89.2217 68° East 438 504 33,000  Level Memphis Center
03:42PM 35.3969 -89.0808 70° East 438 504 33,000  Level Memphis Center
03:43PM 35.4436 -88.9400 68° East 438 504 33,000  Level Memphis Center
03:44PM 35.4856 -88.8017 70° East 431 496 33,000  Level Memphis Center
03:45PM 35.5317 -88.6553 69° East 436 502 33,000  Level Memphis Center
03:46PM 35.5775 -88.5064 69° East 446 513 33,000  Level Memphis Center
03:47PM 35.6253 -88.3597 68° East 452 520 33,000  Level Memphis Center
03:48PM 35.6708 -88.2106 69° East 452 520 33,000  Level Memphis Center
03:49PM 35.7122 -88.0842 68° East 451 519 33,000  Level Memphis Center
03:50PM 35.7594 -87.9344 69° East 457 526 33,000  Level Memphis Center
03:51PM 35.8044 -87.7847 70° East 457 526 33,000  Level Memphis Center
03:52PM 35.8553 -87.6192 69° East 462 532 33,000  Level Memphis Center
03:53PM 35.9039 -87.4689 68° East 462 532 33,000  Level Memphis Center
03:54PM 35.9461 -87.3211 71° East 462 532 33,000  Level Memphis Center
03:55PM 35.9906 -87.1733 70° East 462 532 33,000  Level Memphis Center
03:56PM 36.0367 -87.0228 69° East 457 526 33,000  Level Memphis Center
03:57PM 36.0783 -86.8747 71° East 457 526 33,000  Level Memphis Center
03:58PM 36.1219 -86.7236 70° East 457 526 33,000  Level Memphis Center
03:59PM 36.1697 -86.5775 68° East 457 526 33,000  Level Memphis Center
04:00PM 36.2172 -86.4314 68° East 457 526 33,000  Level Memphis Center
04:01PM 36.2647 -86.2875 68° East 452 520 33,000  Level Memphis Center
04:03PM 36.3819 -85.9225 68° East 463 533 33,000  Level Indianapolis Center
04:04PM 36.4269 -85.7825 68° East 464 534 33,000  Level Indianapolis Center
04:05PM 36.4750 -85.6322 68° East 464 534 33,000  Level Indianapolis Center
04:06PM 36.5214 -85.4817 69° East 465 535 33,000  Level Indianapolis Center
04:07PM 36.5675 -85.3314 69° East 464 534 33,000  Level Indianapolis Center
04:08PM 36.6239 -85.1497 69° East 467 537 33,000  Level Indianapolis Center
04:09PM 36.6700 -84.9997 69° East 462 532 33,000  Level Indianapolis Center
04:10PM 36.7156 -84.8492 69° East 463 533 33,000  Level Indianapolis Center
04:11PM 36.7617 -84.7000 69° East 461 531 33,000  Level Indianapolis Center
04:12PM 36.8064 -84.5517 69° East 458 527 33,000  Level Indianapolis Center
04:14PM 36.8558 -84.3897 69° East 456 525 33,000  Level Indianapolis Center
04:15PM 36.8997 -84.2411 70° East 457 526 33,000  Level Indianapolis Center
04:16PM 36.9444 -84.0944 69° East 453 521 33,000  Level Indianapolis Center
04:17PM 36.9875 -83.9472 70° East 450 518 33,000  Level Indianapolis Center
04:18PM 37.0392 -83.7739 69° East 454 522 33,000  Level Indianapolis Center
04:19PM 37.0828 -83.6242 70° East 454 522 33,000  Level Indianapolis Center
04:20PM 37.1258 -83.4739 70° East 455 524 33,000  Level Indianapolis Center
04:21PM 37.1708 -83.3236 69° East 457 526 33,000  Level Indianapolis Center
04:22PM 37.2144 -83.1711 70° East 459 528 33,000  Level Indianapolis Center
04:23PM 37.2583 -83.0189 70° East 459 528 33,000  Level Indianapolis Center
04:24PM 37.3017 -82.8667 70° East 459 528 33,000  Level Indianapolis Center
04:25PM 37.3517 -82.6894 70° East 458 527 33,000  Level Indianapolis Center
04:26PM 37.3953 -82.5375 70° East 459 528 33,000  Level Indianapolis Center
04:27PM 37.4378 -82.3853 71° East 459 528 33,000  Level Indianapolis Center
04:28PM 37.4792 -82.2328 71° East 459 528 33,000  Level Indianapolis Center
04:29PM 37.5231 -82.0794 70° East 463 533 33,000  Level Indianapolis Center
04:30PM 37.5642 -81.9264 71° East 460 529 33,000  Level Indianapolis Center
04:31PM 37.6122 -81.7489 71° East 458 527 33,000  Level Indianapolis Center
04:32PM 37.6547 -81.5975 70° East 458 527 33,000  Level Indianapolis Center
04:33PM 37.6908 -81.4589 72° East 458 527 33,000  Level Indianapolis Center
04:34PM 37.7394 -81.2803 71° East 460 529 33,000  Level Indianapolis Center
04:35PM 37.7792 -81.1308 71° East 461 531 33,000  Level Indianapolis Center
04:36PM 37.8303 -80.9869 66° East 459 528 33,000  Level Indianapolis Center
04:37PM 37.8811 -80.8392 66° East 460 529 33,000  Level Indianapolis Center
04:38PM 37.9436 -80.6631 66° East 459 528 33,000  Level Indianapolis Center
04:39PM 37.9956 -80.5167 66° East 456 525 33,000  Level Indianapolis Center
04:40PM 38.0428 -80.3844 66° East 457 526 33,000  Level Indianapolis Center
04:41PM 38.0992 -80.2214 66° East 459 528 33,000 -420 Level Indianapolis Center
04:42PM 38.1553 -80.0669 65° Northeast 458 527 32,200 -900 Descending Indianapolis Center
04:43PM 38.2056 -79.9197 66° East 464 534 31,200 -1,080 Descending Indianapolis Center
04:45PM 38.2678 -79.7425 66° East 467 537 30,000 -1,140 Descending Indianapolis Center
04:46PM 38.3192 -79.5922 66° East 472 543 28,900 -1,140 Descending Indianapolis Center
04:47PM 38.3786 -79.4400 63° Northeast 470 541 27,800 -960 Descending Washington Center
04:48PM 38.4294 -79.2811 68° East 470 541 27,000 -420 Descending Washington Center
04:49PM 38.4547 -79.1286 78° East 470 541 27,000 -900 Level Washington Center
04:50PM 38.4825 -78.9603 78° East 481 554 25,300 -1,980 Descending Washington Center
04:51PM 38.5083 -78.7861 79° East 487 560 23,200 -2,040 Descending Washington Center
04:52PM 38.5356 -78.6200 78° East 487 560 21,300 -1,920 Descending Washington Center
04:53PM 38.5644 -78.4594 77° East 482 555 19,400 -1,800 Descending Washington Center
04:54PM 38.5889 -78.2983 79° East 467 537 17,700 -1,500 Descending Washington Center
04:55PM 38.6275 -78.1561 71° East 443 510 16,500 -1,500 Descending Washington Center
04:56PM 38.6767 -78.0036 68° East 404 465 14,500 -1,560 Descending Washington Center
04:57PM 38.7167 -77.8744 68° East 385 443 13,100 -1,140 Descending Washington Center
04:58PM 38.7686 -77.7750 56° Northeast 356 410 12,300 -1,200 Descending Washington Center
04:59PM 38.8328 -77.6783 50° Northeast 327 376 10,700 -1,560 Descending Washington Center
05:00PM 38.8667 -77.5833 65° Northeast 319 367 9,300 -1,320 Descending Potomac TRACON
05:01PM 38.9000 -77.4667 70° East 311 358 8,100 -1,200 Descending Potomac TRACON
05:02PM 38.8833 -77.3667 102° East 308 354 6,900 -1,080 Descending Potomac TRACON
05:03PM 38.8333 -77.2667 123° Southeast 280 322 6,000 -720 Descending Potomac TRACON
05:04PM 38.8000 -77.2000 123° Southeast 243 280 5,600 -1,140 Descending Potomac TRACON
05:05PM 38.7667 -77.1333 123° Southeast 229 264 3,800 -1,560 Descending Potomac TRACON
05:06PM 38.7167 -77.1000 153° Southeast 228 262 2,400 -960 Descending Potomac TRACON
05:07PM 38.7333 -77.0333 72° East 206 237 1,900 -540 Descending Potomac TRACON
05:08PM 38.7667 -77.0333 360° North 170 196 1,400 -660 Descending Potomac TRACON
05:09PM 38.8167 -77.0333 360° North 141 162 600 -840 Descending Potomac TRACON
05:11PM 38.8500 -77.0333 North  Level FlightAware Approximate
05:18PM 38.8519 -77.0377 North  Level Estimated
05:19PM 38.8500 -77.0333 North  Level FlightAware Approximate
05:20PM 38.8519 -77.0377 North  Level Estimated